Terminal Aerodrome Forecast
Issued by NWS Detroit/Pontiac, MI

Home | Current Version | Previous Version | Text Only | Print | Product List | Glossary On
Versions: 1 2 3 4 5 6 7 8 9 10 11 12 13 14
956
FTUS43 KDTX 301720
TAFFNT
TAF
KFNT 301720Z 3018/3118 06010KT 6SM -SHRA BR BKN015 OVC045
     FM302000 04010KT P6SM BKN035 BKN050
     FM310200 02004KT P6SM BKN120
     FM310800 VRB04KT 4SM BR SCT025
     FM311200 VRB05KT P6SM SCT030 BKN060=

USA.gov is the U.S. government's official web portal to all federal, state and local government web resources and services.